Thunder radar more information blitzortung!


avis per Pluja more information rain snow radar


Visita la nostra xarxa de llocs de meteo:

Template documentation
and downloads

And another site



Rain From: 18-10-2018 10:00 Until: 16:59 warning for: Rain Level: Yellow info button

Pagina Historial Weather Underground text

Diari Resum February 11, 2016 Unitats:  Mètric    Imperial   Tant
« Previous Dia
SegĂźent Dia »
Diari Setmana Mensual Anual Personalitzada
  Maxima: Minima: Media:
Temperatura: -17.8 °C -12.8 °C -11.6 °C
Punt de rosada: -17.8 °C -15.2 °C -13.4 °C
Humitat: Humidity % 69 % 80 %
Wind Speed: 0 km/h 0 km/h 5.1 km/h
RĂ fegues de vent: 0 km/h - -
Vent:- - SSE
Pression baro: 0 hPa 34164.7 hPa -
Precipitacions: 0 mm    
Historical Graphs
 
 
Dades de taula per February 11, 2016
Temps Temperatura Punt de rosada Pression baro Vent Wind Speed RĂ fegues de vent Humitat Rainfall Rate (Hourly)
-17.8 °C -17.8 °C 0 hPa Calm     Humidity % 0 mm
00:00 -12.2 °C -15.2 °C 34198.6 hPa East 7.7 km/h 18.2 km/h 69 % 0 mm
10:41 -12.7 °C -14.1 °C 34256.2 hPa WNW 4.2 km/h 4.2 km/h 84 % 0 mm
10:47 -12.4 °C -13.7 °C 34256.2 hPa NNE 3.1 km/h   85 % 0 mm
10:52 -12.4 °C -13.7 °C 34256.2 hPa NE 6 km/h 6 km/h 85 % 0 mm
10:57 -12.3 °C -13.7 °C 34256.2 hPa ENE 3.1 km/h 3.1 km/h 85 % 0 mm
11:02 -12.3 °C -13.6 °C 34256.2 hPa NNE 3.1 km/h   85 % 0 mm
11:07 -12.3 °C -13.6 °C 34293.4 hPa Calm     85 % 0 mm
11:12 -12.2 °C -13.6 °C 34293.4 hPa NNE 5.6 km/h 5.6 km/h 85 % 0 mm
11:17 -12.2 °C -13.5 °C 34293.4 hPa Calm     85 % 0 mm
11:22 -12.2 °C -13.5 °C 34293.4 hPa Calm     85 % 0 mm
11:27 -12.1 °C -13.4 °C 34293.4 hPa ENE 3.1 km/h 3.7 km/h 85 % 0 mm
11:32 -12.2 °C -13.5 °C 34293.4 hPa ENE 2.3 km/h   85 % 0 mm
11:37 -12.1 °C -13.4 °C 34256.2 hPa Calm     85 % 0 mm
11:42 -12 °C -13.4 °C 34256.2 hPa Calm     84 % 0 mm
11:47 -11.9 °C -13.3 °C 34256.2 hPa ENE 3.1 km/h 3.1 km/h 85 % 0 mm
11:53 -11.9 °C -13.3 °C 34256.2 hPa ENE 3.1 km/h 3.7 km/h 85 % 0 mm
11:58 -11.9 °C -13.3 °C 34256.2 hPa NE 3.1 km/h   85 % 0 mm
12:03 -12 °C -13.3 °C 34256.2 hPa NE 3.1 km/h 3.7 km/h 85 % 0 mm
12:08 -11.9 °C -13.3 °C 34256.2 hPa NNE 3.7 km/h 3.7 km/h 85 % 0 mm
12:13 -11.9 °C -13.3 °C 34256.2 hPa ENE 6 km/h 6 km/h 85 % 0 mm
12:18 -11.9 °C -13.3 °C 34256.2 hPa ENE 6.3 km/h 6.3 km/h 85 % 0 mm
12:23 -11.9 °C -13.2 °C 34256.2 hPa NNE 3.1 km/h   85 % 0 mm
12:28 -11.9 °C -13.2 °C 34256.2 hPa NNE 6 km/h 6.8 km/h 85 % 0 mm
12:33 -11.9 °C -13.3 °C 34256.2 hPa NW 3.1 km/h   85 % 0 mm
12:38 -11.9 °C -13.2 °C 34256.2 hPa NNE 3.1 km/h 3.1 km/h 86 % 0 mm
12:43 -11.9 °C -13.3 °C 34256.2 hPa WNW 6 km/h 6 km/h 85 % 0 mm
12:48 -11.9 °C -13.2 °C 34256.2 hPa NNE 3.1 km/h 3.1 km/h 86 % 0 mm
12:53 -11.9 °C -13.2 °C 34256.2 hPa NE 4.2 km/h 4.2 km/h 86 % 0 mm
12:58 -11.9 °C -13.2 °C 34256.2 hPa NE 3.1 km/h   86 % 0 mm
13:03 -11.8 °C -13.1 °C 34256.2 hPa NE 3.1 km/h   86 % 0 mm
13:08 -11.8 °C -13.1 °C 34256.2 hPa NNE 6 km/h 6 km/h 86 % 0 mm
13:13 -11.9 °C -13.2 °C 34256.2 hPa NNE 3.1 km/h   86 % 0 mm
13:18 -11.8 °C -13.1 °C 34256.2 hPa Calm     86 % 0 mm
13:23 -11.8 °C -12.9 °C 34222.3 hPa Calm     87 % 0 mm
13:28 -11.7 °C -12.9 °C 34222.3 hPa NW 3.1 km/h   87 % 0 mm
13:33 -11.7 °C -12.9 °C 34222.3 hPa Calm   3.7 km/h 87 % 0 mm
13:38 -11.7 °C -12.9 °C 34222.3 hPa SSE 3.1 km/h 3.1 km/h 87 % 0 mm
13:43 -11.7 °C -12.9 °C 34222.3 hPa Calm     87 % 0 mm
13:48 -11.7 °C -12.9 °C 34222.3 hPa Calm     87 % 0 mm
13:53 -11.7 °C -12.9 °C 34164.7 hPa ESE 3.1 km/h 3.1 km/h 87 % 0 mm
13:58 -11.7 °C -12.8 °C 34164.7 hPa NE 3.1 km/h 3.1 km/h 87 % 0 mm
14:03 -11.7 °C -12.8 °C 34164.7 hPa NNE 3.1 km/h   87 % 0 mm
14:08 -11.7 °C -12.8 °C 34198.6 hPa ENE 6 km/h 6 km/h 87 % 0 mm
14:13 -11.7 °C -12.8 °C 34198.6 hPa Calm     87 % 0 mm
14:18 -11.6 °C -12.7 °C 34198.6 hPa Calm     87 % 0 mm
14:23 -11.6 °C -12.8 °C 34198.6 hPa WSW 3.7 km/h   86 % 0 mm
14:28 -11.5 °C -12.7 °C 34198.6 hPa Calm     87 % 0 mm
14:33 -11.5 °C -12.7 °C 34198.6 hPa SW 6 km/h 6 km/h 86 % 0 mm
14:38 -11.4 °C -12.7 °C 34198.6 hPa WSW 6 km/h 6 km/h 86 % 0 mm
14:43 -11.3 °C -12.6 °C 34198.6 hPa SW 6 km/h 6 km/h 86 % 0 mm
14:48 -11.3 °C -12.6 °C 34198.6 hPa SW 11.9 km/h 11.9 km/h 85 % 0 mm
14:53 -11.2 °C -12.6 °C 34198.6 hPa West 6.3 km/h 6.3 km/h 85 % 0 mm
14:58 -11.1 °C -12.4 °C 34198.6 hPa WSW 9 km/h 9 km/h 85 % 0 mm
15:03 -11 °C -12.3 °C 34198.6 hPa SW 9 km/h 9 km/h 85 % 0 mm
15:08 -10.9 °C -12.3 °C 34222.3 hPa WSW 9 km/h 9 km/h 85 % 0 mm
15:13 -10.9 °C -12.3 °C 34222.3 hPa SW 15 km/h 15 km/h 85 % 0 mm
15:18 -10.8 °C -12.2 °C 34222.3 hPa WSW 6 km/h 6 km/h 85 % 0 mm
15:23 -10.8 °C -12.1 °C 34198.6 hPa SW 8 km/h 8 km/h 85 % 0 mm
15:28 -10.8 °C -12.3 °C 34198.6 hPa WSW 9 km/h 9 km/h 84 % 0 mm
15:33 -10.7 °C -12.1 °C 34198.6 hPa SW 6 km/h 6 km/h 84 % 0 mm
15:38 -10.6 °C -12.1 °C 34198.6 hPa SW 6 km/h 6 km/h 84 % 0 mm
15:43 -10.3 °C -11.8 °C 34198.6 hPa SW 9.3 km/h 9.3 km/h 83 % 0 mm
15:48 -10.2 °C -11.8 °C 34198.6 hPa East 3.1 km/h   82 % 0 mm
15:53 -10.3 °C -12 °C 34198.6 hPa SW 3.7 km/h   82 % 0 mm
16:03 -10.4 °C -12.1 °C 34198.6 hPa WSW 3.1 km/h   82 % 0 mm
16:08 -10.4 °C -12.1 °C 34198.6 hPa SW 3.1 km/h   82 % 0 mm
16:13 -10.4 °C -12.2 °C 34198.6 hPa SSW 6 km/h 6 km/h 81 % 0 mm
16:23 -10.5 °C -12.3 °C 34198.6 hPa SW 6 km/h 6 km/h 81 % 0 mm
16:28 -10.5 °C -12.3 °C 34198.6 hPa Calm     81 % 0 mm
16:33 -10.5 °C -12.3 °C 34198.6 hPa NNW 3.1 km/h   81 % 0 mm
16:38 -10.5 °C -12.3 °C 34164.7 hPa NE 6 km/h   81 % 0 mm
16:43 -10.6 °C -12.3 °C 34164.7 hPa NNE 9 km/h 9 km/h 81 % 0 mm
16:58 -10.6 °C -12.3 °C 34198.6 hPa ENE 6 km/h 6 km/h 82 % 0 mm
17:03 -10.6 °C -12.3 °C 34198.6 hPa West 3.1 km/h   82 % 0 mm
17:08 -10.7 °C -12.3 °C 34164.7 hPa NNW 9 km/h 9 km/h 82 % 0 mm
17:13 -10.6 °C -12.4 °C 34164.7 hPa SSE 6 km/h 6 km/h 81 % 0 mm
17:18 -10.6 °C -12.4 °C 34164.7 hPa WSW 9 km/h 9 km/h 80 % 0 mm
17:23 -10.5 °C -12.4 °C 34198.6 hPa SW 4.2 km/h 4.2 km/h 79 % 0 mm
17:28 -10.6 °C -12.6 °C 34198.6 hPa WNW 5.1 km/h 5.1 km/h 78 % 0 mm
17:33 -10.6 °C -12.7 °C 34198.6 hPa SW 9 km/h 9 km/h 78 % 0 mm
17:38 -10.7 °C -12.8 °C 34198.6 hPa WSW 11.9 km/h 11.9 km/h 77 % 0 mm
17:43 -10.6 °C -12.8 °C 34198.6 hPa SW 6.8 km/h 6.8 km/h 77 % 0 mm
17:48 -10.6 °C -13 °C 34198.6 hPa WSW 15 km/h 15 km/h 75 % 0 mm
17:58 -10.7 °C -13.1 °C 34198.6 hPa WSW 6.3 km/h 6.3 km/h 75 % 0 mm
18:03 -10.8 °C -13.2 °C 34198.6 hPa WSW 11.9 km/h 11.9 km/h 75 % 0 mm
18:08 -10.9 °C -13.3 °C 34164.7 hPa SSW 9 km/h 9 km/h 75 % 0 mm
18:13 -11 °C -13.5 °C 34164.7 hPa WSW 9 km/h 9 km/h 74 % 0 mm
18:18 -11.1 °C -13.5 °C 34164.7 hPa WSW 14 km/h 14 km/h 75 % 0 mm
18:23 -11.1 °C -13.6 °C 34198.6 hPa West 11.9 km/h 11.9 km/h 74 % 0 mm
18:28 -11.2 °C -13.7 °C 34198.6 hPa West 11.9 km/h 11.9 km/h 74 % 0 mm
18:33 -11.2 °C -13.6 °C 34198.6 hPa ESE 11.9 km/h 11.9 km/h 75 % 0 mm
18:38 -11.3 °C -13.7 °C 34198.6 hPa SW 6 km/h 6 km/h 75 % 0 mm
18:43 -11.3 °C -13.7 °C 34198.6 hPa WSW 6 km/h 6 km/h 75 % 0 mm
18:48 -11.4 °C -13.8 °C 34198.6 hPa West 6.8 km/h 6.8 km/h 75 % 0 mm
18:53 -11.4 °C -13.8 °C 34198.6 hPa West 11.9 km/h 11.9 km/h 75 % 0 mm
18:58 -11.4 °C -13.8 °C 34198.6 hPa SW 9 km/h 9 km/h 75 % 0 mm
19:03 -11.4 °C -13.9 °C 34198.6 hPa West 7.6 km/h 7.6 km/h 74 % 0 mm
19:08 -11.5 °C -14 °C 34222.3 hPa NW 6 km/h 6 km/h 74 % 0 mm
19:13 -11.5 °C -14 °C 34222.3 hPa WSW 6 km/h 6 km/h 74 % 0 mm
19:18 -11.6 °C -14.1 °C 34222.3 hPa West 17.9 km/h 17.9 km/h 74 % 0 mm
19:23 -11.6 °C -14.1 °C 34222.3 hPa West 9 km/h 9 km/h 74 % 0 mm
19:33 -11.6 °C -14.1 °C 34222.3 hPa WSW 9 km/h 9 km/h 74 % 0 mm
19:38 -11.7 °C -14.1 °C 34222.3 hPa NNW 7.6 km/h 7.6 km/h 74 % 0 mm
19:48 -11.7 °C -14.1 °C 34222.3 hPa SW 11.9 km/h 11.9 km/h 74 % 0 mm
19:53 -11.6 °C -14.1 °C 34198.6 hPa West 15 km/h 15 km/h 74 % 0 mm
19:58 -11.6 °C -14.1 °C 34198.6 hPa SW 6 km/h 6 km/h 74 % 0 mm
20:03 -11.6 °C -14.1 °C 34198.6 hPa WNW 8 km/h 8 km/h 74 % 0 mm
20:08 -11.5 °C -14 °C 34222.3 hPa ENE 6 km/h 6 km/h 74 % 0 mm
20:13 -11.5 °C -14 °C 34222.3 hPa NE 11.9 km/h 11.9 km/h 74 % 0 mm
20:18 -11.5 °C -14.1 °C 34222.3 hPa East 6.3 km/h 6.3 km/h 73 % 0 mm
20:28 -11.6 °C -14.1 °C 34222.3 hPa ESE 9 km/h 9 km/h 74 % 0 mm
20:33 -11.6 °C -14.1 °C 34222.3 hPa SW 6 km/h 6 km/h 74 % 0 mm
20:38 -11.7 °C -14.1 °C 34256.2 hPa WSW 5.1 km/h 5.1 km/h 74 % 0 mm
20:43 -11.8 °C -14.3 °C 34256.2 hPa Calm     74 % 0 mm
20:48 -11.8 °C -14.1 °C 34256.2 hPa NNW 3.1 km/h   75 % 0 mm
20:53 -11.8 °C -14.1 °C 34256.2 hPa Calm     75 % 0 mm
20:58 -11.8 °C -14.2 °C 34256.2 hPa Calm     75 % 0 mm
21:03 -11.9 °C -14.3 °C 34256.2 hPa Calm     75 % 0 mm
21:13 -11.9 °C -14.3 °C 34222.3 hPa Calm     75 % 0 mm
21:23 -12.2 °C -14.6 °C 34256.2 hPa Calm     75 % 0 mm
21:28 -12.2 °C -14.5 °C 34256.2 hPa ENE 3.7 km/h   76 % 0 mm
21:33 -12.2 °C -14.5 °C 34256.2 hPa East 4.2 km/h 4.2 km/h 76 % 0 mm
21:43 -12.2 °C -14.5 °C 34256.2 hPa SW 6 km/h   76 % 0 mm
21:48 -12.3 °C -14.5 °C 34256.2 hPa SSE 6 km/h 6 km/h 76 % 0 mm
21:53 -12.2 °C -14.5 °C 34256.2 hPa SW 6.3 km/h 6.3 km/h 76 % 0 mm
22:03 -12.3 °C -14.6 °C 34256.2 hPa Calm     76 % 0 mm
22:08 -12.4 °C -14.6 °C 34222.3 hPa Calm     77 % 0 mm
22:13 -12.4 °C -14.6 °C 34222.3 hPa Calm     77 % 0 mm
22:23 -12.4 °C -14.6 °C 34256.2 hPa Calm     77 % 0 mm
22:33 -12.5 °C -14.6 °C 34256.2 hPa Calm     77 % 0 mm
22:38 -12.6 °C -14.7 °C 34222.3 hPa ENE 6 km/h 6 km/h 77 % 0 mm
22:43 -12.7 °C -14.7 °C 34222.3 hPa NE 6.8 km/h 6.8 km/h 78 % 0 mm
22:48 -12.7 °C -14.8 °C 34222.3 hPa NNE 6 km/h 6 km/h 78 % 0 mm
22:53 -12.8 °C -14.8 °C 34256.2 hPa East 9.3 km/h 9.3 km/h 78 % 0 mm
22:58 -12.7 °C -14.6 °C 34256.2 hPa Calm     79 % 0 mm
23:03 -12.7 °C -14.6 °C 34256.2 hPa NNE 6 km/h 6 km/h 79 % 0 mm
23:08 -12.7 °C -14.6 °C 34256.2 hPa NNE 3.1 km/h   79 % 0 mm
23:13 -12.7 °C -14.6 °C 34256.2 hPa NNE 6 km/h 6 km/h 79 % 0 mm
23:18 -12.8 °C -14.7 °C 34256.2 hPa Calm     79 % 0 mm
23:23 -12.8 °C -14.7 °C 34256.2 hPa Calm     79 % 0 mm
Meteo Sesrovires
Elogis d' Weather Underground - 1.25 mb

Guio original per  Jim McMurry - jmcmurry@mwt.net Adaptat per a la plantilla per  Wim van der Kuil - Leuven-Template.eu

Trobareu la nostra informacio del temps tambe a:

Weather Underground

AWEKAS